Time;durP1;ratioP1;P1;durP2;ratioP2;P2;SDS_P1;SDS_P2;PMS_P1;PMS_P2;Temp;Humidity;BMP_temperature;BMP_pressure;BME280_temperature;BME280_humidity;BME280_pressure;Samples;Min_cycle;Max_cycle;Signal;HPM_P1;HPM_P2
2022/03/13 00:01:43;;;;;;;22.23;14.90;;;;;;;;;;5047627;28;20053;-63
2022/03/13 00:04:11;;;;;;;26.60;16.77;;;;;;;;;;5047239;28;20044;-63
2022/03/13 00:06:38;;;;;;;23.70;15.40;;;;;;;;;;5048800;28;20179;-63
2022/03/13 00:09:05;;;;;;;25.90;15.83;;;;;;;;;;5049122;28;20535;-63
2022/03/13 00:11:32;;;;;;;23.50;16.43;;;;;;;;;;5051115;28;20087;-63
2022/03/13 00:13:58;;;;;;;24.07;16.33;;;;;;;;;;5061132;28;20041;-63
2022/03/13 00:16:25;;;;;;;21.70;15.30;;;;;;;;;;5047290;28;20057;-63
2022/03/13 00:18:51;;;;;;;21.27;15.53;;;;;;;;;;5047825;28;20536;-63
2022/03/13 00:21:19;;;;;;;22.43;15.47;;;;;;;;;;5048263;28;20037;-63
2022/03/13 00:23:45;;;;;;;23.10;16.27;;;;;;;;;;5048762;28;20414;-63
2022/03/13 00:26:13;;;;;;;27.00;15.97;;;;;;;;;;5047132;28;20049;-63
2022/03/13 00:28:39;;;;;;;23.70;15.07;;;;;;;;;;5048145;28;20094;-63
2022/03/13 00:31:06;;;;;;;30.63;16.90;;;;;;;;;;5046987;28;20122;-63
2022/03/13 00:33:33;;;;;;;21.87;15.53;;;;;;;;;;5040604;28;20076;-63
2022/03/13 00:35:59;;;;;;;21.17;15.83;;;;;;;;;;5047421;28;20052;-63
2022/03/13 00:38:25;;;;;;;25.00;15.87;;;;;;;;;;5048244;28;20422;-63
2022/03/13 00:40:56;;;;;;;25.97;16.57;;;;;;;;;;5048969;28;20115;-63
2022/03/13 00:43:23;;;;;;;25.63;17.27;;;;;;;;;;5063843;28;20106;-63
2022/03/13 00:45:50;;;;;;;24.33;16.07;;;;;;;;;;5047958;28;20048;-63
2022/03/13 00:48:16;;;;;;;22.37;15.57;;;;;;;;;;5047006;28;20053;-63
2022/03/13 00:50:43;;;;;;;23.47;16.07;;;;;;;;;;5048008;28;20045;-63
2022/03/13 00:53:09;;;;;;;22.00;15.93;;;;;;;;;;5045175;28;20052;-63
2022/03/13 00:55:35;;;;;;;22.60;15.33;;;;;;;;;;5047923;28;20611;-63
2022/03/13 00:58:01;;;;;;;22.80;16.20;;;;;;;;;;5046376;28;20044;-63
2022/03/13 01:00:27;;;;;;;22.00;15.67;;;;;;;;;;5047708;28;20045;-63
2022/03/13 01:02:53;;;;;;;22.47;15.87;;;;;;;;;;5047952;28;20045;-63
2022/03/13 01:05:24;;;;;;;24.93;15.93;;;;;;;;;;5047708;28;20056;-63
2022/03/13 01:07:54;;;;;;;24.53;16.20;;;;;;;;;;5047390;28;20106;-63
2022/03/13 01:10:20;;;;;;;22.37;15.67;;;;;;;;;;5045134;28;20407;-63
2022/03/13 01:12:48;;;;;;;23.07;14.80;;;;;;;;;;5045354;28;20051;-63
2022/03/13 01:15:14;;;;;;;22.63;15.43;;;;;;;;;;5050272;28;20094;-63
2022/03/13 01:17:40;;;;;;;21.03;14.00;;;;;;;;;;5045439;28;20514;-63
2022/03/13 01:20:15;;;;;;;21.73;14.67;;;;;;;;;;5031942;28;20420;-63
2022/03/13 01:22:41;;;;;;;22.77;14.20;;;;;;;;;;5031824;28;20045;-63
2022/03/13 01:25:07;;;;;;;21.43;13.77;;;;;;;;;;5031620;28;20460;-63
2022/03/13 01:27:35;;;;;;;25.47;14.77;;;;;;;;;;5032069;28;20052;-63
2022/03/13 01:30:03;;;;;;;22.87;14.33;;;;;;;;;;5047894;28;20079;-63
2022/03/13 01:32:32;;;;;;;20.63;13.70;;;;;;;;;;5051676;28;20496;-63
2022/03/13 01:34:58;;;;;;;20.93;13.47;;;;;;;;;;5050617;28;20511;-63
2022/03/13 01:37:30;;;;;;;19.30;13.93;;;;;;;;;;5050923;28;20123;-63
2022/03/13 01:39:58;;;;;;;23.20;14.95;;;;;;;;;;5051527;28;20140;-63
2022/03/13 01:42:24;;;;;;;20.53;14.77;;;;;;;;;;5051778;28;20049;-63
2022/03/13 01:44:50;;;;;;;23.17;14.70;;;;;;;;;;5051401;28;20422;-63
2022/03/13 01:47:16;;;;;;;20.53;14.57;;;;;;;;;;5051329;28;20053;-63
2022/03/13 01:49:42;;;;;;;21.47;14.30;;;;;;;;;;5051340;28;20055;-63
2022/03/13 01:52:09;;;;;;;22.13;13.73;;;;;;;;;;5051291;28;20048;-63
2022/03/13 01:54:35;;;;;;;19.23;13.30;;;;;;;;;;5050925;28;20135;-63
2022/03/13 01:57:02;;;;;;;20.00;13.37;;;;;;;;;;5051569;28;20048;-63
2022/03/13 01:59:32;;;;;;;18.93;12.80;;;;;;;;;;5050868;28;20049;-63
2022/03/13 02:01:58;;;;;;;23.00;14.60;;;;;;;;;;5048216;28;20037;-63
2022/03/13 02:04:25;;;;;;;16.40;12.37;;;;;;;;;;5051297;28;20041;-63
2022/03/13 02:06:53;;;;;;;17.13;12.60;;;;;;;;;;5050964;28;20499;-63
2022/03/13 02:09:19;;;;;;;18.80;13.10;;;;;;;;;;5050792;28;20056;-63
2022/03/13 02:11:45;;;;;;;20.90;13.43;;;;;;;;;;5042844;28;20052;-63
2022/03/13 02:14:12;;;;;;;17.80;12.83;;;;;;;;;;5048220;28;20395;-63
2022/03/13 02:16:39;;;;;;;19.67;12.47;;;;;;;;;;5042492;28;20080;-63
2022/03/13 02:19:09;;;;;;;19.47;13.40;;;;;;;;;;5050763;28;20434;-63
2022/03/13 02:21:40;;;;;;;20.60;13.60;;;;;;;;;;5049661;28;20728;-63
2022/03/13 02:24:10;;;;;;;18.33;12.03;;;;;;;;;;5042360;28;20041;-63
2022/03/13 02:26:36;;;;;;;19.30;13.20;;;;;;;;;;5049888;28;20057;-63
2022/03/13 02:29:02;;;;;;;20.23;13.60;;;;;;;;;;5049994;28;20037;-63
2022/03/13 02:31:31;;;;;;;19.30;13.83;;;;;;;;;;5048900;28;20087;-63
2022/03/13 02:33:57;;;;;;;23.70;13.90;;;;;;;;;;5048630;28;20056;-63
2022/03/13 02:36:32;;;;;;;18.20;12.57;;;;;;;;;;5043812;28;20503;-63
2022/03/13 02:38:59;;;;;;;26.40;14.60;;;;;;;;;;5048096;28;20053;-63
2022/03/13 02:41:29;;;;;;;19.37;12.57;;;;;;;;;;5042999;28;20099;-63
2022/03/13 02:43:56;;;;;;;20.93;13.87;;;;;;;;;;5049882;28;20087;-63
2022/03/13 02:46:23;;;;;;;17.40;12.50;;;;;;;;;;5041703;28;20049;-63
2022/03/13 02:48:50;;;;;;;21.20;13.70;;;;;;;;;;5049292;28;20045;-63
2022/03/13 02:51:16;;;;;;;22.00;13.60;;;;;;;;;;5049751;28;20049;-63
2022/03/13 02:53:42;;;;;;;19.40;13.60;;;;;;;;;;5049977;28;20037;-63
2022/03/13 02:56:09;;;;;;;18.10;12.97;;;;;;;;;;5049170;28;20090;-63
2022/03/13 02:58:35;;;;;;;19.10;13.20;;;;;;;;;;5041893;28;20045;-63
2022/03/13 03:01:01;;;;;;;22.57;13.77;;;;;;;;;;5050318;28;20053;-63
2022/03/13 03:03:27;;;;;;;18.90;12.37;;;;;;;;;;5047852;28;20099;-63
2022/03/13 03:05:54;;;;;;;20.17;13.73;;;;;;;;;;5049724;28;20098;-63
2022/03/13 03:08:21;;;;;;;19.50;13.00;;;;;;;;;;5048654;28;20430;-63
2022/03/13 03:10:47;;;;;;;20.30;13.37;;;;;;;;;;5049158;28;20044;-63
2022/03/13 03:13:15;;;;;;;21.87;14.03;;;;;;;;;;5042224;28;20116;-63
2022/03/13 03:15:41;;;;;;;22.77;14.33;;;;;;;;;;5047357;28;20443;-63
2022/03/13 03:18:09;;;;;;;19.97;14.40;;;;;;;;;;5049437;28;20388;-63
2022/03/13 03:20:35;;;;;;;20.17;13.17;;;;;;;;;;5049494;28;20802;-63
2022/03/13 03:23:01;;;;;;;22.20;13.97;;;;;;;;;;5049093;28;20511;-63
2022/03/13 03:25:28;;;;;;;19.17;13.37;;;;;;;;;;5049410;28;20052;-63
2022/03/13 03:27:56;;;;;;;22.87;13.97;;;;;;;;;;5048486;28;20041;-63
2022/03/13 03:30:23;;;;;;;20.93;13.90;;;;;;;;;;5048867;28;20049;-63
2022/03/13 03:32:50;;;;;;;22.50;13.73;;;;;;;;;;5048559;28;20061;-63
2022/03/13 03:35:24;;;;;;;19.10;13.20;;;;;;;;;;5048991;28;20045;-63
2022/03/13 03:37:51;;;;;;;23.53;14.80;;;;;;;;;;5040528;28;20522;-63
2022/03/13 03:40:17;;;;;;;23.07;14.67;;;;;;;;;;5048529;28;20095;-63
2022/03/13 03:42:43;;;;;;;22.60;14.37;;;;;;;;;;5040456;28;20577;-63
2022/03/13 03:45:10;;;;;;;20.53;13.23;;;;;;;;;;5048320;28;20041;-63
2022/03/13 03:47:36;;;;;;;17.47;13.00;;;;;;;;;;5048618;28;20053;-63
2022/03/13 03:50:03;;;;;;;22.40;14.57;;;;;;;;;;5047378;28;20056;-63
2022/03/13 03:52:29;;;;;;;20.47;14.07;;;;;;;;;;5045325;28;20431;-63
2022/03/13 03:54:55;;;;;;;19.13;12.73;;;;;;;;;;5044725;28;20033;-63
2022/03/13 03:57:21;;;;;;;20.43;13.60;;;;;;;;;;5048254;28;20049;-63
2022/03/13 03:59:47;;;;;;;23.20;15.20;;;;;;;;;;5048440;28;20044;-63
2022/03/13 04:02:13;;;;;;;20.83;13.07;;;;;;;;;;5044917;28;20131;-63
2022/03/13 04:04:41;;;;;;;23.10;14.03;;;;;;;;;;5048017;28;20086;-63
2022/03/13 04:07:07;;;;;;;18.77;12.43;;;;;;;;;;5048611;28;20064;-63
2022/03/13 04:09:33;;;;;;;21.67;13.57;;;;;;;;;;5047673;28;20495;-63
2022/03/13 04:11:59;;;;;;;24.00;13.87;;;;;;;;;;5047968;28;20542;-63
2022/03/13 04:14:25;;;;;;;18.27;13.00;;;;;;;;;;5039676;28;20049;-63
2022/03/13 04:16:53;;;;;;;19.73;14.00;;;;;;;;;;5048389;28;20048;-63
2022/03/13 04:19:20;;;;;;;20.33;13.43;;;;;;;;;;5039890;28;20503;-63
2022/03/13 04:21:46;;;;;;;22.00;13.43;;;;;;;;;;5040314;28;20558;-63
2022/03/13 04:24:13;;;;;;;18.73;12.73;;;;;;;;;;5047966;28;20037;-63
2022/03/13 04:26:40;;;;;;;19.10;13.63;;;;;;;;;;5040291;28;20045;-63
2022/03/13 04:29:07;;;;;;;21.53;13.67;;;;;;;;;;5048030;28;20041;-63
2022/03/13 04:31:35;;;;;;;21.73;15.27;;;;;;;;;;5047781;28;20060;-63
2022/03/13 04:34:01;;;;;;;20.33;14.13;;;;;;;;;;5048123;28;20093;-62
2022/03/13 04:36:28;;;;;;;20.73;12.90;;;;;;;;;;5048282;28;20114;-63
2022/03/13 04:38:54;;;;;;;19.70;13.30;;;;;;;;;;5048010;28;20091;-63
2022/03/13 04:41:20;;;;;;;20.17;13.57;;;;;;;;;;5063662;28;20411;-63
2022/03/13 04:43:47;;;;;;;21.73;14.20;;;;;;;;;;5047925;28;20109;-63
2022/03/13 04:46:15;;;;;;;25.00;13.90;;;;;;;;;;5052084;28;20116;-63
2022/03/13 04:48:41;;;;;;;23.93;14.67;;;;;;;;;;5051917;28;20045;-63
2022/03/13 04:51:07;;;;;;;22.20;15.13;;;;;;;;;;5052283;28;20041;-63
2022/03/13 04:53:33;;;;;;;22.00;15.03;;;;;;;;;;5051822;28;20139;-63
2022/03/13 04:56:00;;;;;;;23.40;15.77;;;;;;;;;;5051698;28;20171;-63
2022/03/13 04:58:26;;;;;;;22.47;14.93;;;;;;;;;;5052192;28;20099;-63
2022/03/13 05:00:52;;;;;;;23.27;14.60;;;;;;;;;;5051383;28;20041;-63
2022/03/13 05:03:18;;;;;;;22.43;14.87;;;;;;;;;;5051284;28;20754;-63
2022/03/13 05:05:44;;;;;;;22.40;16.27;;;;;;;;;;5052163;28;20047;-63
2022/03/13 05:08:15;;;;;;;24.03;14.97;;;;;;;;;;5051180;28;20049;-63
2022/03/13 05:10:43;;;;;;;27.20;17.13;;;;;;;;;;5051293;28;20049;-63
2022/03/13 05:13:11;;;;;;;23.93;15.07;;;;;;;;;;5051576;28;20056;-63
2022/03/13 05:15:37;;;;;;;22.07;14.23;;;;;;;;;;5051423;28;20044;-63
2022/03/13 05:18:04;;;;;;;24.67;15.23;;;;;;;;;;5051350;28;20041;-63
2022/03/13 05:20:31;;;;;;;25.60;16.43;;;;;;;;;;5051209;28;20084;-63
2022/03/13 05:22:57;;;;;;;24.53;15.57;;;;;;;;;;5051316;28;20126;-63
2022/03/13 05:25:24;;;;;;;28.47;16.40;;;;;;;;;;5047823;28;20053;-63
2022/03/13 05:27:50;;;;;;;21.27;14.70;;;;;;;;;;5044076;28;20430;-63
2022/03/13 05:30:17;;;;;;;23.63;15.23;;;;;;;;;;5050793;28;20079;-63
2022/03/13 05:32:43;;;;;;;22.07;14.97;;;;;;;;;;5051455;28;20427;-63
2022/03/13 05:35:10;;;;;;;24.63;17.00;;;;;;;;;;5051065;28;20045;-63
2022/03/13 05:37:36;;;;;;;20.30;15.00;;;;;;;;;;5051000;28;20060;-63
2022/03/13 05:40:03;;;;;;;22.43;15.27;;;;;;;;;;5051654;28;20067;-63
2022/03/13 05:42:30;;;;;;;25.47;15.83;;;;;;;;;;5047613;28;20554;-63
2022/03/13 05:44:56;;;;;;;23.77;15.47;;;;;;;;;;5041012;28;20577;-63
2022/03/13 05:47:23;;;;;;;28.63;15.63;;;;;;;;;;5041292;28;20063;-63
2022/03/13 05:49:49;;;;;;;31.37;17.03;;;;;;;;;;5047017;28;20066;-63
2022/03/13 05:52:16;;;;;;;22.97;15.17;;;;;;;;;;5050412;28;20041;-62
2022/03/13 05:54:45;;;;;;;24.57;15.83;;;;;;;;;;5043017;28;20068;-62
2022/03/13 05:57:12;;;;;;;21.27;15.67;;;;;;;;;;5044084;28;20047;-63
2022/03/13 05:59:38;;;;;;;20.47;15.00;;;;;;;;;;5046638;28;20052;-63
2022/03/13 06:02:08;;;;;;;23.40;16.27;;;;;;;;;;5050077;28;20048;-63
2022/03/13 06:04:39;;;;;;;22.57;15.03;;;;;;;;;;5049975;28;20080;-62
2022/03/13 06:07:05;;;;;;;24.67;16.03;;;;;;;;;;5042351;28;20508;-63
2022/03/13 06:09:32;;;;;;;26.07;15.57;;;;;;;;;;5047928;28;20127;-63
2022/03/13 06:11:58;;;;;;;28.20;15.13;;;;;;;;;;5050003;28;20084;-62
2022/03/13 06:14:25;;;;;;;23.27;15.33;;;;;;;;;;5049899;28;20049;-63
2022/03/13 06:16:51;;;;;;;22.27;14.40;;;;;;;;;;5049978;28;20041;-62
2022/03/13 06:19:17;;;;;;;29.13;16.70;;;;;;;;;;5049765;28;20086;-63
2022/03/13 06:21:43;;;;;;;26.63;15.00;;;;;;;;;;5049743;28;20045;-63
2022/03/13 06:24:09;;;;;;;23.20;15.57;;;;;;;;;;5049733;28;20053;-63
2022/03/13 06:26:36;;;;;;;25.90;15.87;;;;;;;;;;5049540;28;20127;-63
2022/03/13 06:29:02;;;;;;;21.60;15.73;;;;;;;;;;5049255;28;20068;-63
2022/03/13 06:31:28;;;;;;;21.63;15.63;;;;;;;;;;5040777;28;20202;-63
2022/03/13 06:33:54;;;;;;;24.20;15.13;;;;;;;;;;5041453;28;20049;-63
2022/03/13 06:36:20;;;;;;;26.10;15.53;;;;;;;;;;5049259;28;20041;-63
2022/03/13 06:38:47;;;;;;;20.60;14.80;;;;;;;;;;5040327;28;20046;-63
2022/03/13 06:41:13;;;;;;;22.30;15.80;;;;;;;;;;5048920;28;20178;-63
2022/03/13 06:43:39;;;;;;;24.87;14.83;;;;;;;;;;5048848;28;20045;-63
2022/03/13 06:46:05;;;;;;;23.93;14.87;;;;;;;;;;5049010;28;20037;-63
2022/03/13 06:48:32;;;;;;;26.43;14.83;;;;;;;;;;5048765;28;20107;-63
2022/03/13 06:50:58;;;;;;;22.53;15.13;;;;;;;;;;5048672;28;20120;-63
2022/03/13 06:53:24;;;;;;;21.30;14.40;;;;;;;;;;5048940;28;20044;-63
2022/03/13 06:55:54;;;;;;;22.40;14.27;;;;;;;;;;5048552;28;20120;-63
2022/03/13 06:58:20;;;;;;;22.73;15.70;;;;;;;;;;5048854;28;20483;-63
2022/03/13 07:00:46;;;;;;;18.90;13.53;;;;;;;;;;5048550;28;20052;-63
2022/03/13 07:03:13;;;;;;;18.97;13.23;;;;;;;;;;5048386;28;20092;-63
2022/03/13 07:05:39;;;;;;;20.20;12.63;;;;;;;;;;5048955;28;20040;-63
2022/03/13 07:08:06;;;;;;;17.67;12.27;;;;;;;;;;5043843;28;20076;-63
2022/03/13 07:10:32;;;;;;;18.27;12.57;;;;;;;;;;5037794;28;20068;-63
2022/03/13 07:12:59;;;;;;;21.93;13.23;;;;;;;;;;5043169;28;20095;-63
2022/03/13 07:15:26;;;;;;;18.97;12.47;;;;;;;;;;5039781;28;20510;-63
2022/03/13 07:17:53;;;;;;;19.20;12.77;;;;;;;;;;5048775;28;20048;-63
2022/03/13 07:20:19;;;;;;;18.57;12.23;;;;;;;;;;5048252;28;20041;-63
2022/03/13 07:22:45;;;;;;;21.20;13.47;;;;;;;;;;5048301;28;20131;-63
2022/03/13 07:25:12;;;;;;;17.30;12.57;;;;;;;;;;5047700;28;20051;-63
2022/03/13 07:27:38;;;;;;;19.33;12.97;;;;;;;;;;5048111;28;20048;-63
2022/03/13 07:30:05;;;;;;;18.67;12.03;;;;;;;;;;5042059;28;20124;-63
2022/03/13 07:32:31;;;;;;;21.00;12.53;;;;;;;;;;5037176;28;20053;-63
2022/03/13 07:34:57;;;;;;;17.10;11.97;;;;;;;;;;5041591;28;20053;-63
2022/03/13 07:37:23;;;;;;;17.80;12.10;;;;;;;;;;5038038;28;20512;-63
2022/03/13 07:39:49;;;;;;;19.67;12.60;;;;;;;;;;5037287;28;20037;-63
2022/03/13 07:42:16;;;;;;;18.60;13.27;;;;;;;;;;5039840;28;20060;-63
2022/03/13 07:44:43;;;;;;;17.33;12.30;;;;;;;;;;5040523;28;20045;-65
2022/03/13 07:47:09;;;;;;;17.40;12.20;;;;;;;;;;5037312;28;20041;-65
2022/03/13 07:49:35;;;;;;;18.83;11.53;;;;;;;;;;5047629;28;20053;-65
2022/03/13 07:52:01;;;;;;;17.47;11.50;;;;;;;;;;5041556;28;20044;-65
2022/03/13 07:54:27;;;;;;;16.97;12.13;;;;;;;;;;5047627;28;20079;-65
2022/03/13 07:56:53;;;;;;;18.03;12.57;;;;;;;;;;5047574;28;20060;-65
2022/03/13 07:59:19;;;;;;;17.07;11.97;;;;;;;;;;5047026;28;20500;-65
2022/03/13 08:01:47;;;;;;;20.30;11.70;;;;;;;;;;5047623;28;20048;-65
2022/03/13 08:04:14;;;;;;;19.67;11.03;;;;;;;;;;5047045;28;20053;-66
2022/03/13 08:06:40;;;;;;;19.30;11.77;;;;;;;;;;5047718;28;20048;-65
2022/03/13 08:09:06;;;;;;;16.53;12.57;;;;;;;;;;5046691;28;20055;-66
2022/03/13 08:11:36;;;;;;;15.90;11.50;;;;;;;;;;5046803;28;20040;-66
2022/03/13 08:14:07;;;;;;;17.90;11.43;;;;;;;;;;5046821;28;20040;-66
2022/03/13 08:16:33;;;;;;;16.20;11.40;;;;;;;;;;5044426;28;20045;-65
2022/03/13 08:19:00;;;;;;;19.20;12.27;;;;;;;;;;5046302;28;20561;-66
2022/03/13 08:21:26;;;;;;;16.63;11.23;;;;;;;;;;5047417;28;20048;-66
2022/03/13 08:23:53;;;;;;;14.60;10.60;;;;;;;;;;5047342;28;20051;-65
2022/03/13 08:26:19;;;;;;;16.20;11.93;;;;;;;;;;5047111;28;20049;-65
2022/03/13 08:28:45;;;;;;;16.83;11.13;;;;;;;;;;5047569;28;20060;-66
2022/03/13 08:31:13;;;;;;;18.63;11.93;;;;;;;;;;5046682;28;20052;-65
2022/03/13 08:33:42;;;;;;;16.47;11.10;;;;;;;;;;5047352;28;20072;-65
2022/03/13 08:36:08;;;;;;;16.17;10.53;;;;;;;;;;5046700;28;20055;-65
2022/03/13 08:38:34;;;;;;;16.30;11.73;;;;;;;;;;5047025;28;20186;-66
2022/03/13 08:41:00;;;;;;;17.13;11.83;;;;;;;;;;5047039;28;20568;-66
2022/03/13 08:43:26;;;;;;;18.93;11.20;;;;;;;;;;5047061;28;20047;-65
2022/03/13 08:45:52;;;;;;;16.03;10.80;;;;;;;;;;5047184;28;20387;-66
2022/03/13 08:48:18;;;;;;;15.27;11.77;;;;;;;;;;5047368;28;20041;-66
2022/03/13 08:50:44;;;;;;;16.37;11.23;;;;;;;;;;5046139;28;20079;-66
2022/03/13 08:53:10;;;;;;;16.03;10.77;;;;;;;;;;5046820;28;20045;-66
2022/03/13 08:55:36;;;;;;;16.63;10.27;;;;;;;;;;5047360;28;20786;-66
2022/03/13 08:58:03;;;;;;;15.77;11.27;;;;;;;;;;5047176;28;20040;-66
2022/03/13 09:00:29;;;;;;;16.57;11.40;;;;;;;;;;5047352;28;20122;-66
2022/03/13 09:02:55;;;;;;;19.10;11.67;;;;;;;;;;5047159;28;20577;-66
2022/03/13 09:05:21;;;;;;;16.40;11.90;;;;;;;;;;5046482;28;20514;-66
2022/03/13 09:07:48;;;;;;;14.87;11.00;;;;;;;;;;5048495;28;20507;-66
2022/03/13 09:10:14;;;;;;;15.60;9.90;;;;;;;;;;5046557;28;20059;-66
2022/03/13 09:12:40;;;;;;;14.30;10.43;;;;;;;;;;5046034;28;20040;-66
2022/03/13 09:15:07;;;;;;;16.80;10.40;;;;;;;;;;5045315;28;20122;-66
2022/03/13 09:17:34;;;;;;;15.03;10.43;;;;;;;;;;5046567;28;20067;-66
2022/03/13 09:20:00;;;;;;;14.43;10.47;;;;;;;;;;5046656;28;20051;-66
2022/03/13 09:22:29;;;;;;;15.63;10.93;;;;;;;;;;5046843;28;20049;-66
2022/03/13 09:24:58;;;;;;;15.43;10.80;;;;;;;;;;5047765;28;20563;-66
2022/03/13 09:27:25;;;;;;;15.63;11.47;;;;;;;;;;5046743;28;20159;-66
2022/03/13 09:29:51;;;;;;;15.47;10.57;;;;;;;;;;5047133;28;20158;-66
2022/03/13 09:32:17;;;;;;;14.20;10.67;;;;;;;;;;5049424;28;20060;-66
2022/03/13 09:34:44;;;;;;;18.57;11.87;;;;;;;;;;5067313;28;20037;-66
2022/03/13 09:37:10;;;;;;;17.70;11.13;;;;;;;;;;5051342;28;20726;-66
2022/03/13 09:39:36;;;;;;;14.53;10.60;;;;;;;;;;5051322;28;20068;-66
2022/03/13 09:42:03;;;;;;;17.70;11.07;;;;;;;;;;5051447;28;20454;-66
2022/03/13 09:44:28;;;;;;;17.57;10.33;;;;;;;;;;5051006;28;20053;-66
2022/03/13 09:46:54;;;;;;;15.43;11.53;;;;;;;;;;5050866;28;20550;-66
2022/03/13 09:49:21;;;;;;;15.50;11.83;;;;;;;;;;5050877;28;20045;-66
2022/03/13 09:51:47;;;;;;;12.80;10.10;;;;;;;;;;5066922;28;20110;-66
2022/03/13 09:54:13;;;;;;;15.37;10.20;;;;;;;;;;5066296;28;20179;-66
2022/03/13 09:56:40;;;;;;;15.23;10.87;;;;;;;;;;5050759;28;20059;-66
2022/03/13 09:59:07;;;;;;;15.20;9.97;;;;;;;;;;5049912;28;20052;-66
2022/03/13 10:01:33;;;;;;;16.37;11.00;;;;;;;;;;5050971;28;20555;-66
2022/03/13 10:03:59;;;;;;;17.33;11.03;;;;;;;;;;5050768;28;20445;-66
2022/03/13 10:06:26;;;;;;;13.33;9.80;;;;;;;;;;5050927;28;20080;-66
2022/03/13 10:08:52;;;;;;;16.03;11.03;;;;;;;;;;5050736;28;20142;-66
2022/03/13 10:11:48;;;;;;;15.00;10.53;;;;;;;;;;5050134;28;20131;-66
2022/03/13 10:14:14;;;;;;;15.90;10.27;;;;;;;;;;5041811;28;20064;-66
2022/03/13 10:16:40;;;;;;;17.93;10.47;;;;;;;;;;5050656;28;20491;-66
2022/03/13 10:19:13;;;;;;;14.30;11.10;;;;;;;;;;5050317;28;20045;-66
2022/03/13 10:21:39;;;;;;;;;;;;;;;;;;5048219;28;20049;-66
2022/03/13 10:24:10;;;;;;;15.97;9.77;;;;;;;;;;5044228;28;19920;-68
2022/03/13 10:26:38;;;;;;;14.63;10.70;;;;;;;;;;5050043;28;20106;-67
2022/03/13 10:29:05;;;;;;;14.13;10.67;;;;;;;;;;5044121;28;20497;-67
2022/03/13 10:31:31;;;;;;;14.90;10.43;;;;;;;;;;5047080;28;20154;-67
2022/03/13 10:34:00;;;;;;;16.03;10.87;;;;;;;;;;5049532;28;20808;-67
2022/03/13 10:36:35;;;;;;;14.83;11.17;;;;;;;;;;5050200;28;20126;-67
2022/03/13 10:39:02;;;;;;;15.70;11.37;;;;;;;;;;5040727;28;20506;-67
2022/03/13 10:41:42;;;;;;;19.50;11.47;;;;;;;;;;5041022;28;20160;-68
2022/03/13 10:44:13;;;;;;;13.80;11.13;;;;;;;;;;5044496;28;20044;-67
2022/03/13 10:46:40;;;;;;;16.83;10.77;;;;;;;;;;5049522;28;20411;-67
2022/03/13 10:49:08;;;;;;;16.17;12.03;;;;;;;;;;5040881;28;20056;-67
2022/03/13 10:51:45;;;;;;;14.80;11.57;;;;;;;;;;5049472;28;20047;-67
2022/03/13 10:54:25;;;;;;;13.17;11.03;;;;;;;;;;5041710;28;20041;-67
2022/03/13 10:57:05;;;;;;;18.37;11.70;;;;;;;;;;5036006;28;20042;-67
2022/03/13 10:59:31;;;;;;;16.03;11.57;;;;;;;;;;5035053;28;20053;-67
2022/03/13 11:02:16;;;;;;;14.07;10.73;;;;;;;;;;5034956;28;20136;-66
2022/03/13 11:04:55;;;;;;;14.30;11.73;;;;;;;;;;5040326;28;20064;-66
2022/03/13 11:07:22;;;;;;;20.23;11.90;;;;;;;;;;5034665;28;20128;-65
2022/03/13 11:09:49;;;;;;;15.53;11.77;;;;;;;;;;5042020;28;20044;-67
2022/03/13 11:12:20;;;;;;;16.03;12.30;;;;;;;;;;5039927;28;20033;-67
2022/03/13 11:14:48;;;;;;;15.87;12.97;;;;;;;;;;5036895;28;20052;-67
2022/03/13 11:17:15;;;;;;;14.97;11.40;;;;;;;;;;5044627;28;20041;-67
2022/03/13 11:19:41;;;;;;;14.60;11.33;;;;;;;;;;5049426;28;20491;-67
2022/03/13 11:22:07;;;;;;;16.37;12.80;;;;;;;;;;5047666;28;20068;-67
2022/03/13 11:24:36;;;;;;;15.13;11.60;;;;;;;;;;5042125;28;20075;-67
2022/03/13 11:27:05;;;;;;;21.47;17.90;;;;;;;;;;5048650;28;20055;-66
2022/03/13 11:30:05;;;;;;;56.40;49.77;;;;;;;;;;5048971;28;20052;-67
2022/03/13 11:32:45;;;;;;;16.13;12.10;;;;;;;;;;5037221;28;20053;-66
2022/03/13 11:35:14;;;;;;;17.73;14.40;;;;;;;;;;5039880;28;20423;-67
2022/03/13 11:37:40;;;;;;;23.40;17.10;;;;;;;;;;5039171;28;20119;-66
2022/03/13 11:40:07;;;;;;;17.00;12.97;;;;;;;;;;5043055;28;20033;-67
2022/03/13 11:42:54;;;;;;;19.53;14.03;;;;;;;;;;5040858;28;20053;-67
2022/03/13 11:45:35;;;;;;;20.43;17.37;;;;;;;;;;5039468;28;20059;-68
2022/03/13 11:48:22;;;;;;;18.77;11.97;;;;;;;;;;5048146;28;20040;-68
2022/03/13 11:50:48;;;;;;;16.03;12.60;;;;;;;;;;5047926;28;20563;-68
2022/03/13 11:53:24;;;;;;;21.10;18.87;;;;;;;;;;5048687;28;20134;-68
2022/03/13 11:56:00;;;;;;;22.03;19.67;;;;;;;;;;5036583;28;20131;-68
2022/03/13 11:58:46;;;;;;;22.03;15.80;;;;;;;;;;5038474;28;20073;-68
2022/03/13 12:01:30;;;;;;;30.27;24.00;;;;;;;;;;5043722;28;20044;-68
2022/03/13 12:06:41;;;;;;;19.50;13.23;;;;;;;;;;5036598;28;20072;-68
2022/03/13 12:09:08;;;;;;;19.90;15.77;;;;;;;;;;5037776;28;20041;-68
2022/03/13 12:11:38;;;;;;;19.33;15.50;;;;;;;;;;5038076;28;20044;-68
2022/03/13 12:14:07;;;;;;;39.50;35.37;;;;;;;;;;5050943;28;20045;-68
2022/03/13 12:16:33;;;;;;;188.03;168.33;;;;;;;;;;5038764;28;20270;-68
2022/03/13 12:18:59;;;;;;;195.27;174.43;;;;;;;;;;5041651;28;20064;-68
2022/03/13 12:21:26;;;;;;;118.73;106.17;;;;;;;;;;5040629;28;20499;-68
2022/03/13 12:23:58;;;;;;;128.80;111.80;;;;;;;;;;5038821;28;20460;-68
2022/03/13 12:26:35;;;;;;;43.43;38.83;;;;;;;;;;5034650;28;20385;-68
2022/03/13 12:29:01;;;;;;;20.43;14.67;;;;;;;;;;5040548;28;20387;-68
2022/03/13 12:31:28;;;;;;;16.70;14.20;;;;;;;;;;5040230;28;20058;-68
2022/03/13 12:33:55;;;;;;;31.47;27.17;;;;;;;;;;5039898;28;20461;-68
2022/03/13 12:36:24;;;;;;;70.93;62.53;;;;;;;;;;5039754;28;20523;-68
2022/03/13 12:38:52;;;;;;;30.73;24.73;;;;;;;;;;5041481;28;20042;-68
2022/03/13 12:41:18;;;;;;;48.27;42.87;;;;;;;;;;5048191;28;20091;-68
2022/03/13 12:43:52;;;;;;;95.10;82.87;;;;;;;;;;5047354;28;20052;-67
2022/03/13 12:46:18;;;;;;;91.93;82.33;;;;;;;;;;5033764;28;20152;-68
2022/03/13 12:48:55;;;;;;;30.63;27.17;;;;;;;;;;5046829;28;20084;-68
2022/03/13 12:51:34;;;;;;;37.37;31.00;;;;;;;;;;5039910;28;20087;-68
2022/03/13 12:54:02;;;;;;;19.10;15.93;;;;;;;;;;5041229;28;20128;-68
2022/03/13 12:56:29;;;;;;;451.67;404.07;;;;;;;;;;5047773;28;20044;-68
2022/03/13 12:58:55;;;;;;;394.23;353.43;;;;;;;;;;5047671;28;20526;-68
2022/03/13 13:01:21;;;;;;;481.80;425.57;;;;;;;;;;5047934;28;20044;-68
2022/03/13 13:03:55;;;;;;;245.70;219.47;;;;;;;;;;5047645;28;20570;-68
2022/03/13 13:06:31;;;;;;;323.43;268.13;;;;;;;;;;5048145;28;20048;-68
2022/03/13 13:08:57;;;;;;;133.40;119.27;;;;;;;;;;5051167;28;20059;-68
2022/03/13 13:11:33;;;;;;;42.47;36.53;;;;;;;;;;5050195;28;20041;-68
2022/03/13 13:14:02;;;;;;;24.47;20.27;;;;;;;;;;5048587;28;20593;-68
2022/03/13 13:16:29;;;;;;;39.90;35.67;;;;;;;;;;5041294;28;20049;-68
2022/03/13 13:18:56;;;;;;;60.87;54.20;;;;;;;;;;5041332;28;20067;-69
2022/03/13 13:21:33;;;;;;;27.83;24.38;;;;;;;;;;5041308;28;20144;-68
2022/03/13 13:23:59;;;;;;;18.63;15.37;;;;;;;;;;5038226;28;20076;-68
2022/03/13 13:26:42;;;;;;;189.60;168.63;;;;;;;;;;5042690;28;20097;-68
2022/03/13 13:29:08;;;;;;;136.00;121.50;;;;;;;;;;5038498;28;20045;-68
2022/03/13 13:31:34;;;;;;;42.80;36.53;;;;;;;;;;5038666;28;20056;-68
2022/03/13 13:34:14;;;;;;;22.08;19.20;;;;;;;;;;5038309;28;20418;-68
2022/03/13 13:36:40;;;;;;;70.28;58.08;;;;;;;;;;5039687;28;20129;-69
2022/03/13 13:39:07;;;;;;;106.78;89.97;;;;;;;;;;5036463;28;20128;-68
2022/03/13 13:41:35;;;;;;;73.70;61.93;;;;;;;;;;5036342;28;20478;-68
2022/03/13 13:44:03;;;;;;;260.17;220.50;;;;;;;;;;5055909;28;20049;-68
2022/03/13 13:46:32;;;;;;;113.47;92.30;;;;;;;;;;5038639;28;20390;-68
2022/03/13 13:48:59;;;;;;;49.63;42.03;;;;;;;;;;5039283;28;20045;-68
2022/03/13 13:51:28;;;;;;;26.05;22.42;;;;;;;;;;5040660;28;20037;-69
2022/03/13 13:53:55;;;;;;;69.32;61.03;;;;;;;;;;5038916;28;20568;-69
2022/03/13 13:56:30;;;;;;;49.17;39.75;;;;;;;;;;5041966;28;20060;-68
2022/03/13 13:58:58;;;;;;;17.40;15.52;;;;;;;;;;5040737;28;20049;-69
2022/03/13 14:01:31;;;;;;;33.67;30.23;;;;;;;;;;5040927;28;20041;-69
2022/03/13 14:03:57;;;;;;;10.50;9.40;;;;;;;;;;5041000;28;20063;-69
2022/03/13 14:06:25;;;;;;;16.92;9.23;;;;;;;;;;5040413;28;20471;-69
2022/03/13 14:08:52;;;;;;;11.68;9.05;;;;;;;;;;5040591;28;20041;-69
2022/03/13 14:11:18;;;;;;;12.35;9.32;;;;;;;;;;5038829;28;20041;-69
2022/03/13 14:13:48;;;;;;;12.02;9.40;;;;;;;;;;5042560;28;20044;-69
2022/03/13 14:16:16;;;;;;;14.55;8.98;;;;;;;;;;5040287;28;20069;-69
2022/03/13 14:18:42;;;;;;;10.70;9.27;;;;;;;;;;5044860;28;20380;-69
2022/03/13 14:21:08;;;;;;;10.82;9.73;;;;;;;;;;5041510;28;20046;-69
2022/03/13 14:23:34;;;;;;;12.60;9.52;;;;;;;;;;5040044;28;20037;-69